createdAt,value
2022-11-27T00:01:12.705Z,3.40
2022-11-27T00:03:41.463Z,3.80
2022-11-27T00:06:13.175Z,3.50
2022-11-27T00:08:41.087Z,3.50
2022-11-27T00:11:12.760Z,3.50
2022-11-27T00:13:40.871Z,4.80
2022-11-27T00:16:09.686Z,3.60
2022-11-27T00:18:37.869Z,3.60
2022-11-27T00:21:07.554Z,3.70
2022-11-27T00:23:36.275Z,3.70
2022-11-27T00:26:04.653Z,3.70
2022-11-27T00:28:34.390Z,4.70
2022-11-27T00:31:03.497Z,3.80
2022-11-27T00:33:31.622Z,4.80
2022-11-27T00:36:03.264Z,3.80
2022-11-27T00:38:35.862Z,4.30
2022-11-27T00:41:10.313Z,3.90
2022-11-27T00:43:44.481Z,3.80
2022-11-27T00:46:12.947Z,4.50
2022-11-27T00:48:40.969Z,5.20
2022-11-27T00:51:10.784Z,3.90
2022-11-27T00:53:38.920Z,3.90
2022-11-27T00:56:07.402Z,3.90
2022-11-27T00:58:35.769Z,4.00
2022-11-27T01:01:07.534Z,4.10
2022-11-27T01:03:36.221Z,5.40
2022-11-27T01:06:05.537Z,4.10
2022-11-27T01:08:33.633Z,4.10
2022-11-27T01:11:02.281Z,4.10
2022-11-27T01:13:33.160Z,4.10
2022-11-27T01:16:01.164Z,4.10
2022-11-27T01:18:30.828Z,4.20
2022-11-27T01:20:58.713Z,4.10
2022-11-27T01:23:27.079Z,5.50
2022-11-27T01:25:55.325Z,4.10
2022-11-27T01:28:24.487Z,4.20
2022-11-27T01:30:52.653Z,5.60
2022-11-27T01:33:21.189Z,4.20
2022-11-27T01:35:57.675Z,4.90
2022-11-27T01:38:26.286Z,4.20
2022-11-27T01:40:58.653Z,6.20
2022-11-27T01:43:41.790Z,5.50
2022-11-27T01:46:18.467Z,4.20
2022-11-27T01:48:47.934Z,4.20
2022-11-27T01:51:17.450Z,4.20
2022-11-27T01:53:45.402Z,5.60
2022-11-27T01:56:13.360Z,4.10
2022-11-27T01:58:41.581Z,4.10
2022-11-27T02:01:09.450Z,4.10
2022-11-27T02:03:37.472Z,4.00
2022-11-27T02:06:05.698Z,4.60
2022-11-27T02:08:34.993Z,4.10
2022-11-27T02:11:07.929Z,5.80
2022-11-27T02:13:41.429Z,4.10
2022-11-27T02:16:18.520Z,4.10
2022-11-27T02:18:55.709Z,5.80
2022-11-27T02:21:34.330Z,4.00
2022-11-27T02:24:32.314Z,4.00
2022-11-27T02:27:23.186Z,4.00
2022-11-27T02:29:56.775Z,3.80
2022-11-27T02:32:30.451Z,3.80
2022-11-27T02:35:05.177Z,5.10
2022-11-27T02:37:37.979Z,3.70
2022-11-27T02:40:11.222Z,3.70
2022-11-27T02:42:44.499Z,3.70
2022-11-27T02:45:16.819Z,5.30
2022-11-27T02:47:47.316Z,5.10
2022-11-27T02:50:17.820Z,3.60
2022-11-27T02:52:47.754Z,3.50
2022-11-27T02:55:19.988Z,3.50
2022-11-27T02:57:49.092Z,3.70
2022-11-27T03:00:19.374Z,3.40
2022-11-27T03:02:51.307Z,3.40
2022-11-27T03:05:23.675Z,4.70
2022-11-27T03:07:57.894Z,4.60
2022-11-27T03:10:30.140Z,3.30
2022-11-27T03:12:59.390Z,4.50
2022-11-27T03:15:42.848Z,3.30
2022-11-27T03:18:19.840Z,4.40
2022-11-27T03:20:53.523Z,3.90
2022-11-27T03:23:21.440Z,3.20
2022-11-27T03:25:49.287Z,4.90
2022-11-27T03:28:17.430Z,4.60
2022-11-27T03:30:46.778Z,3.20
2022-11-27T03:33:14.884Z,3.80
2022-11-27T03:35:42.791Z,3.20
2022-11-27T03:38:10.741Z,3.20
2022-11-27T03:40:46.114Z,4.20
2022-11-27T03:43:20.364Z,2.90
2022-11-27T03:45:56.607Z,3.10
2022-11-27T03:48:31.932Z,3.70
2022-11-27T03:51:08.589Z,4.60
2022-11-27T03:53:45.354Z,3.40
2022-11-27T03:56:21.140Z,5.20
2022-11-27T03:58:55.709Z,3.20
2022-11-27T04:01:27.402Z,3.20
2022-11-27T04:03:55.393Z,3.20
2022-11-27T04:06:23.359Z,3.20
2022-11-27T04:08:51.251Z,3.20
2022-11-27T04:11:19.157Z,3.20
2022-11-27T04:13:47.018Z,4.70
2022-11-27T04:16:14.961Z,3.10
2022-11-27T04:18:44.242Z,4.80
2022-11-27T04:21:12.646Z,3.90
2022-11-27T04:23:41.090Z,3.20
2022-11-27T04:26:08.953Z,3.20
2022-11-27T04:28:36.913Z,3.20
2022-11-27T04:31:04.970Z,3.80
2022-11-27T04:33:32.909Z,4.00
2022-11-27T04:36:02.221Z,3.30
2022-11-27T04:38:30.153Z,3.70
2022-11-27T04:40:58.405Z,3.20
2022-11-27T04:43:26.316Z,4.60
2022-11-27T04:45:54.150Z,4.00
2022-11-27T04:48:22.057Z,3.30
2022-11-27T04:50:49.967Z,4.60
2022-11-27T04:53:19.232Z,4.50
2022-11-27T04:55:47.138Z,3.30
2022-11-27T04:58:15.033Z,3.20
2022-11-27T05:00:43.115Z,3.20
2022-11-27T05:03:12.023Z,3.70
2022-11-27T05:05:39.954Z,3.50
2022-11-27T05:08:07.860Z,3.60
2022-11-27T05:10:37.128Z,3.30
2022-11-27T05:13:05.041Z,3.30
2022-11-27T05:15:32.970Z,3.00
2022-11-27T05:18:00.881Z,3.20
2022-11-27T05:20:28.851Z,3.40
2022-11-27T05:22:56.764Z,2.90
2022-11-27T05:25:24.672Z,3.10
2022-11-27T05:27:54.563Z,4.90
2022-11-27T05:30:22.465Z,4.70
2022-11-27T05:32:50.451Z,4.30
2022-11-27T05:35:18.478Z,4.10
2022-11-27T05:37:46.410Z,5.40
2022-11-27T05:40:14.798Z,5.20
2022-11-27T05:42:42.707Z,3.00
2022-11-27T05:45:12.419Z,4.80
2022-11-27T05:47:40.333Z,3.00
2022-11-27T05:50:09.241Z,4.70
2022-11-27T05:52:37.332Z,3.00
2022-11-27T05:55:06.714Z,3.00
2022-11-27T05:57:34.672Z,3.00
2022-11-27T06:00:02.618Z,3.00
2022-11-27T06:02:32.507Z,3.00
2022-11-27T06:05:00.621Z,2.90
2022-11-27T06:07:28.565Z,2.90
2022-11-27T06:09:56.483Z,2.20
2022-11-27T06:12:24.402Z,4.30
2022-11-27T06:14:52.330Z,2.90
2022-11-27T06:17:20.219Z,4.40
2022-11-27T06:19:49.461Z,4.10
2022-11-27T06:22:17.390Z,5.20
2022-11-27T06:24:45.381Z,4.30
2022-11-27T06:27:13.312Z,3.00
2022-11-27T06:29:41.282Z,4.80
2022-11-27T06:32:09.288Z,3.00
2022-11-27T06:34:37.250Z,4.60
2022-11-27T06:37:11.807Z,2.30
2022-11-27T06:39:41.027Z,4.50
2022-11-27T06:42:09.014Z,3.10
2022-11-27T06:44:36.910Z,3.20
2022-11-27T06:47:04.871Z,3.20
2022-11-27T06:49:32.828Z,3.10
2022-11-27T06:52:01.467Z,3.10
2022-11-27T06:54:30.717Z,3.90
2022-11-27T06:56:59.190Z,4.90
2022-11-27T06:59:27.077Z,3.10
2022-11-27T07:01:55.044Z,3.00
2022-11-27T07:04:23.003Z,3.00
2022-11-27T07:06:50.948Z,3.10
2022-11-27T07:09:18.834Z,4.80
2022-11-27T07:11:48.097Z,3.00
2022-11-27T07:14:16.007Z,4.50
2022-11-27T07:16:43.977Z,5.40
2022-11-27T07:19:11.924Z,3.30
2022-11-27T07:21:40.254Z,3.30
2022-11-27T07:24:08.957Z,3.40
2022-11-27T07:26:36.918Z,3.40
2022-11-27T07:29:06.400Z,2.90
2022-11-27T07:31:34.419Z,3.50
2022-11-27T07:34:02.430Z,4.70
2022-11-27T07:36:31.712Z,5.10
2022-11-27T07:38:59.682Z,3.50
2022-11-27T07:41:33.440Z,3.60
2022-11-27T07:44:01.598Z,4.00
2022-11-27T07:46:31.137Z,3.80
2022-11-27T07:49:00.392Z,3.80
2022-11-27T07:51:28.481Z,5.70
2022-11-27T07:53:56.463Z,3.90
2022-11-27T07:56:24.449Z,5.40
2022-11-27T07:58:52.386Z,4.00
2022-11-27T08:01:21.713Z,5.40
2022-11-27T08:03:51.270Z,6.20
2022-11-27T08:06:21.314Z,4.20
2022-11-27T08:08:50.003Z,4.40
2022-11-27T08:11:20.138Z,6.00
2022-11-27T08:13:48.523Z,5.30
2022-11-27T08:16:16.828Z,5.50
2022-11-27T08:18:44.809Z,4.10
2022-11-27T08:21:14.251Z,4.30
2022-11-27T08:23:42.389Z,5.70
2022-11-27T08:26:11.206Z,5.10
2022-11-27T08:28:39.745Z,4.90
2022-11-27T08:31:09.654Z,4.30
2022-11-27T08:33:37.834Z,5.00
2022-11-27T08:36:09.707Z,4.10
2022-11-27T08:38:40.255Z,4.20
2022-11-27T08:41:09.237Z,5.60
2022-11-27T08:43:37.457Z,5.90
2022-11-27T08:46:06.077Z,6.10
2022-11-27T08:48:34.137Z,4.40
2022-11-27T08:51:07.160Z,6.00
2022-11-27T08:53:36.004Z,4.50
2022-11-27T08:56:09.344Z,4.60
2022-11-27T08:58:37.397Z,4.60
2022-11-27T09:01:10.352Z,5.50
2022-11-27T09:03:38.579Z,5.90
2022-11-27T09:06:09.342Z,5.00
2022-11-27T09:08:37.822Z,4.80
2022-11-27T09:11:07.958Z,5.50
2022-11-27T09:13:37.003Z,4.90
2022-11-27T09:16:06.067Z,6.40
2022-11-27T09:18:34.723Z,6.00
2022-11-27T09:21:04.995Z,5.10
2022-11-27T09:23:37.352Z,5.30
2022-11-27T09:26:09.173Z,5.40
2022-11-27T09:28:37.993Z,5.50
2022-11-27T09:31:07.238Z,6.90
2022-11-27T09:33:37.471Z,5.80
2022-11-27T09:36:06.822Z,6.40
2022-11-27T09:38:34.786Z,5.90
2022-11-27T09:41:14.427Z,6.30
2022-11-27T09:43:45.640Z,7.70
2022-11-27T09:46:20.028Z,7.70
2022-11-27T09:48:51.453Z,6.10
2022-11-27T09:51:27.433Z,7.10
2022-11-27T09:54:00.924Z,5.90
2022-11-27T09:56:32.476Z,6.30
2022-11-27T09:59:01.953Z,6.20
2022-11-27T10:01:38.572Z,6.30
2022-11-27T10:04:15.951Z,6.30
2022-11-27T10:07:16.596Z,6.40
2022-11-27T10:10:00.446Z,6.60
2022-11-27T10:12:38.502Z,6.10
2022-11-27T10:15:11.971Z,8.20
2022-11-27T10:17:44.428Z,6.50
2022-11-27T10:20:23.405Z,8.90
2022-11-27T10:22:57.429Z,6.70
2022-11-27T10:25:31.923Z,6.90
2022-11-27T10:28:11.634Z,6.60
2022-11-27T10:30:45.190Z,7.20
2022-11-27T10:33:19.746Z,6.80
2022-11-27T10:35:50.320Z,6.90
2022-11-27T10:38:27.435Z,7.60
2022-11-27T10:41:06.453Z,7.70
2022-11-27T10:43:37.270Z,6.50
2022-11-27T10:46:13.705Z,7.60
2022-11-27T10:48:41.881Z,7.60
2022-11-27T10:51:16.897Z,7.40
2022-11-27T10:53:47.248Z,7.40
2022-11-27T10:56:41.589Z,7.50
2022-11-27T10:59:16.762Z,7.80
2022-11-27T11:01:47.034Z,7.50
2022-11-27T11:04:48.430Z,7.70
2022-11-27T11:07:05.421Z,8.90
2022-11-27T11:09:34.921Z,8.00
2022-11-27T11:12:08.934Z,8.70
2022-11-27T11:14:38.846Z,8.80
2022-11-27T11:17:16.771Z,9.50
2022-11-27T11:19:45.910Z,10.10
2022-11-27T11:22:16.445Z,9.30
2022-11-27T11:24:48.877Z,9.50
2022-11-27T11:27:20.082Z,8.10
2022-11-27T11:29:52.378Z,8.00
2022-11-27T11:32:26.051Z,8.10
2022-11-27T11:35:01.092Z,9.60
2022-11-27T11:37:32.635Z,8.10
2022-11-27T11:40:03.536Z,8.10
2022-11-27T11:42:33.423Z,8.20
2022-11-27T11:45:16.579Z,10.20
2022-11-27T11:47:46.776Z,8.30
2022-11-27T11:50:15.618Z,8.30
2022-11-27T11:52:53.650Z,8.30
2022-11-27T11:55:28.361Z,8.40
2022-11-27T11:58:28.042Z,8.40
2022-11-27T12:01:28.854Z,8.50
2022-11-27T12:04:14.402Z,8.50
2022-11-27T12:06:56.215Z,8.60
2022-11-27T12:09:36.544Z,9.00
2022-11-27T12:12:14.715Z,8.70
2022-11-27T12:14:48.595Z,9.80
2022-11-27T12:17:39.971Z,8.60
2022-11-27T12:20:21.130Z,10.30
2022-11-27T12:23:24.564Z,9.50
2022-11-27T12:26:01.276Z,8.80
2022-11-27T12:28:42.806Z,9.00
2022-11-27T12:31:21.984Z,8.60
2022-11-27T12:34:01.456Z,8.80
2022-11-27T12:36:45.606Z,8.10
2022-11-27T12:39:23.260Z,9.30
2022-11-27T12:42:02.673Z,8.90
2022-11-27T12:44:38.779Z,8.90
2022-11-27T12:47:12.134Z,9.00
2022-11-27T12:49:45.582Z,10.70
2022-11-27T12:52:19.798Z,8.90
2022-11-27T12:54:55.683Z,10.40
2022-11-27T12:57:31.186Z,9.40
2022-11-27T13:00:04.158Z,8.80
2022-11-27T13:02:37.262Z,9.70
2022-11-27T13:05:11.106Z,8.90
2022-11-27T13:07:44.664Z,9.00
2022-11-27T13:10:21.587Z,9.90
2022-11-27T13:12:57.075Z,10.40
2022-11-27T13:15:28.644Z,9.00
2022-11-27T13:18:04.190Z,8.90
2022-11-27T13:20:39.593Z,9.20
2022-11-27T13:23:09.163Z,10.20
2022-11-27T13:25:43.336Z,11.10
2022-11-27T13:28:21.503Z,9.20
2022-11-27T13:30:51.239Z,9.60
2022-11-27T13:33:34.100Z,9.00
2022-11-27T13:36:07.036Z,10.10
2022-11-27T13:38:38.172Z,8.90
2022-11-27T13:41:06.997Z,8.90
2022-11-27T13:43:42.802Z,9.00
2022-11-27T13:46:16.178Z,10.90
2022-11-27T13:48:49.121Z,9.20
2022-11-27T13:51:27.093Z,10.20
2022-11-27T13:54:07.166Z,8.90
2022-11-27T13:56:35.205Z,8.40
2022-11-27T13:59:14.673Z,8.90
2022-11-27T14:01:55.030Z,8.20
2022-11-27T14:04:23.139Z,8.90
2022-11-27T14:06:58.636Z,8.90
2022-11-27T14:09:39.935Z,8.90
2022-11-27T14:12:25.029Z,8.80
2022-11-27T14:15:03.570Z,8.80
2022-11-27T14:17:41.355Z,10.20
2022-11-27T14:20:29.941Z,9.40
2022-11-27T14:23:11.656Z,8.80
2022-11-27T14:25:47.884Z,8.60
2022-11-27T14:28:21.499Z,8.70
2022-11-27T14:30:51.625Z,10.80
2022-11-27T14:33:21.889Z,8.70
2022-11-27T14:35:51.667Z,8.50
2022-11-27T14:38:21.346Z,8.70
2022-11-27T14:40:51.574Z,8.50
2022-11-27T14:43:23.752Z,8.20
2022-11-27T14:45:54.003Z,8.60
2022-11-27T14:48:24.056Z,9.60
2022-11-27T14:50:53.453Z,10.20
2022-11-27T14:53:25.676Z,10.60
2022-11-27T14:55:57.230Z,8.40
2022-11-27T14:58:27.851Z,9.40
2022-11-27T15:00:59.342Z,8.30
2022-11-27T15:03:28.463Z,8.30
2022-11-27T15:05:59.379Z,8.20
2022-11-27T15:08:31.605Z,7.90
2022-11-27T15:11:00.591Z,8.20
2022-11-27T15:13:30.711Z,8.00
2022-11-27T15:16:02.905Z,8.30
2022-11-27T15:18:33.474Z,8.10
2022-11-27T15:21:02.990Z,8.10
2022-11-27T15:23:34.374Z,8.20
2022-11-27T15:26:15.061Z,8.10
2022-11-27T15:28:52.883Z,8.20
2022-11-27T15:31:30.861Z,8.50
2022-11-27T15:34:02.262Z,9.50
2022-11-27T15:36:40.450Z,7.70
2022-11-27T15:39:36.677Z,9.20
2022-11-27T15:42:09.466Z,10.20
2022-11-27T15:44:38.161Z,8.10
2022-11-27T15:47:07.630Z,9.50
2022-11-27T15:49:35.533Z,7.90
2022-11-27T15:52:03.495Z,7.90
2022-11-27T15:54:32.879Z,7.90
2022-11-27T15:57:00.850Z,7.90
2022-11-27T15:59:29.326Z,7.60
2022-11-27T16:01:58.014Z,7.90
2022-11-27T16:04:26.170Z,7.90
2022-11-27T16:06:54.222Z,9.50
2022-11-27T16:09:22.241Z,7.80
2022-11-27T16:11:51.741Z,9.10
2022-11-27T16:14:19.706Z,7.60
2022-11-27T16:16:48.100Z,7.70
2022-11-27T16:19:17.034Z,8.80
2022-11-27T16:21:44.991Z,7.80
2022-11-27T16:24:14.631Z,6.10
2022-11-27T16:26:42.992Z,7.70
2022-11-27T16:29:12.842Z,7.70
2022-11-27T16:31:41.061Z,7.30
2022-11-27T16:34:09.079Z,7.60
2022-11-27T16:36:37.324Z,7.70
2022-11-27T16:39:05.408Z,7.70
2022-11-27T16:41:33.403Z,7.60
2022-11-27T16:44:01.369Z,7.70
2022-11-27T16:46:31.946Z,7.60
2022-11-27T16:49:01.357Z,7.10
2022-11-27T16:51:31.979Z,8.30
2022-11-27T16:54:01.676Z,7.10
2022-11-27T16:56:31.866Z,7.40
2022-11-27T16:59:02.960Z,7.20
2022-11-27T17:01:36.063Z,7.00
2022-11-27T17:04:04.680Z,9.40
2022-11-27T17:06:34.402Z,7.90
2022-11-27T17:09:04.631Z,7.50
2022-11-27T17:11:34.586Z,7.60
2022-11-27T17:14:06.219Z,7.50
2022-11-27T17:16:36.307Z,7.30
2022-11-27T17:19:04.752Z,7.50
2022-11-27T17:21:34.204Z,7.50
2022-11-27T17:24:03.793Z,7.50
2022-11-27T17:26:33.302Z,9.50
2022-11-27T17:29:03.373Z,7.50
2022-11-27T17:31:35.478Z,7.50
2022-11-27T17:34:05.667Z,7.70
2022-11-27T17:36:37.258Z,7.50
2022-11-27T17:39:07.013Z,7.50
2022-11-27T17:41:35.852Z,7.50
2022-11-27T17:44:05.525Z,7.70
2022-11-27T17:46:35.324Z,7.50
2022-11-27T17:49:06.964Z,7.50
2022-11-27T17:51:36.139Z,7.60
2022-11-27T17:54:05.485Z,7.50
2022-11-27T17:56:34.583Z,8.90
2022-11-27T17:59:02.702Z,7.60
2022-11-27T18:01:33.636Z,9.50
2022-11-27T18:04:10.524Z,7.50
2022-11-27T18:06:39.789Z,7.60
2022-11-27T18:09:08.074Z,7.50
2022-11-27T18:11:38.151Z,7.50
2022-11-27T18:14:06.280Z,7.50
2022-11-27T18:16:37.427Z,9.70
2022-11-27T18:19:07.406Z,7.30
2022-11-27T18:21:38.006Z,7.70
2022-11-27T18:24:23.922Z,7.50
2022-11-27T18:27:07.845Z,7.60
2022-11-27T18:29:45.458Z,7.60
2022-11-27T18:32:16.918Z,7.60
2022-11-27T18:34:45.835Z,7.60
2022-11-27T18:37:15.259Z,7.60
2022-11-27T18:39:45.387Z,7.50
2022-11-27T18:42:13.849Z,7.50
2022-11-27T18:44:45.013Z,8.80
2022-11-27T18:47:14.330Z,8.80
2022-11-27T18:49:43.413Z,8.10
2022-11-27T18:52:12.150Z,9.00
2022-11-27T18:54:41.495Z,8.80
2022-11-27T18:57:11.010Z,7.40
2022-11-27T18:59:39.424Z,8.10
2022-11-27T19:02:08.031Z,7.50
2022-11-27T19:04:37.344Z,7.00
2022-11-27T19:07:05.329Z,7.50
2022-11-27T19:09:34.699Z,7.50
2022-11-27T19:12:04.111Z,7.50
2022-11-27T19:14:32.055Z,7.50
2022-11-27T19:17:00.101Z,7.40
2022-11-27T19:19:53.909Z,7.50
2022-11-27T19:22:16.842Z,9.50
2022-11-27T19:24:44.914Z,6.90
2022-11-27T19:27:14.241Z,7.20
2022-11-27T19:29:42.354Z,9.00
2022-11-27T19:32:10.552Z,7.10
2022-11-27T19:34:38.656Z,7.50
2022-11-27T19:37:06.782Z,7.50
2022-11-27T19:39:34.699Z,9.20
2022-11-27T19:42:02.650Z,8.80
2022-11-27T19:44:32.610Z,7.50
2022-11-27T19:47:00.563Z,9.70
2022-11-27T19:49:28.545Z,7.30
2022-11-27T19:51:56.473Z,7.50
2022-11-27T19:54:24.732Z,8.00
2022-11-27T19:56:52.933Z,9.00
2022-11-27T19:59:25.523Z,6.50
2022-11-27T20:01:55.490Z,7.90
2022-11-27T20:04:23.474Z,7.10
2022-11-27T20:06:53.352Z,7.70
2022-11-27T20:09:21.344Z,7.30
2022-11-27T20:11:49.299Z,7.40
2022-11-27T20:14:17.267Z,8.30
2022-11-27T20:16:45.279Z,8.10
2022-11-27T20:19:14.599Z,7.30
2022-11-27T20:21:43.165Z,8.00
2022-11-27T20:24:11.370Z,7.30
2022-11-27T20:26:42.841Z,7.40
2022-11-27T20:29:11.473Z,7.30
2022-11-27T20:31:43.623Z,7.40
2022-11-27T20:34:17.441Z,7.80
2022-11-27T20:36:45.392Z,7.40
2022-11-27T20:39:19.213Z,7.30
2022-11-27T20:41:49.536Z,8.40
2022-11-27T20:44:17.518Z,7.40
2022-11-27T20:46:45.476Z,6.80
2022-11-27T20:49:14.975Z,7.40
2022-11-27T20:51:43.214Z,7.40
2022-11-27T20:54:12.327Z,7.30
2022-11-27T20:56:41.135Z,8.80
2022-11-27T20:59:23.374Z,9.70
2022-11-27T21:01:51.679Z,8.30
2022-11-27T21:04:24.300Z,7.30
2022-11-27T21:06:52.696Z,7.40
2022-11-27T21:09:21.485Z,7.20
2022-11-27T21:11:49.899Z,7.20
2022-11-27T21:14:18.575Z,7.20
2022-11-27T21:16:48.835Z,7.10
2022-11-27T21:19:19.852Z,8.30
2022-11-27T21:21:49.915Z,8.60
2022-11-27T21:24:18.425Z,8.60
2022-11-27T21:26:46.838Z,7.10
2022-11-27T21:29:15.603Z,7.10
2022-11-27T21:31:47.126Z,7.60
2022-11-27T21:34:16.471Z,6.70
2022-11-27T21:36:44.499Z,6.90
2022-11-27T21:39:20.322Z,8.20
2022-11-27T21:41:49.916Z,8.90
2022-11-27T21:44:18.246Z,7.80
2022-11-27T21:46:51.266Z,9.20
2022-11-27T21:49:21.227Z,9.40
2022-11-27T21:51:52.454Z,6.70
2022-11-27T21:54:22.194Z,5.90
2022-11-27T21:56:52.609Z,6.50
2022-11-27T21:59:20.611Z,7.80
2022-11-27T22:01:48.760Z,6.50
2022-11-27T22:04:17.255Z,6.50
2022-11-27T22:06:45.446Z,6.60
2022-11-27T22:09:15.698Z,7.80
2022-11-27T22:11:46.922Z,7.00
2022-11-27T22:14:16.774Z,6.80
2022-11-27T22:16:46.969Z,6.30
2022-11-27T22:19:15.920Z,6.30
2022-11-27T22:21:44.815Z,6.30
2022-11-27T22:24:18.509Z,6.20
2022-11-27T22:26:49.064Z,6.10
2022-11-27T22:29:17.233Z,6.10
2022-11-27T22:31:45.394Z,6.40
2022-11-27T22:34:13.371Z,6.10
2022-11-27T22:36:41.350Z,6.00
2022-11-27T22:39:10.199Z,6.50
2022-11-27T22:41:40.794Z,6.00
2022-11-27T22:44:12.513Z,6.10
2022-11-27T22:46:42.506Z,6.30
2022-11-27T22:49:16.840Z,6.00
2022-11-27T22:51:45.062Z,6.00
2022-11-27T22:54:16.820Z,6.00
2022-11-27T22:56:45.567Z,6.00
2022-11-27T22:59:32.665Z,5.90
2022-11-27T23:02:01.578Z,6.10
2022-11-27T23:04:29.797Z,6.00
2022-11-27T23:06:58.060Z,6.10
2022-11-27T23:09:26.230Z,6.10
2022-11-27T23:11:54.224Z,6.10
2022-11-27T23:14:23.574Z,6.10
2022-11-27T23:16:51.643Z,6.10
2022-11-27T23:19:21.006Z,6.20
2022-11-27T23:21:48.923Z,6.60
2022-11-27T23:24:16.845Z,6.00
2022-11-27T23:26:45.694Z,6.30
2022-11-27T23:29:14.958Z,6.30
2022-11-27T23:31:44.537Z,6.70
2022-11-27T23:34:15.369Z,6.20
2022-11-27T23:36:43.790Z,6.60
2022-11-27T23:39:14.031Z,6.00
2022-11-27T23:41:42.448Z,6.00
2022-11-27T23:44:10.387Z,6.40
2022-11-27T23:46:38.373Z,6.50
2022-11-27T23:49:07.657Z,6.30
2022-11-27T23:51:35.626Z,6.00
2022-11-27T23:54:07.020Z,6.00
2022-11-27T23:56:34.873Z,6.00
2022-11-27T23:59:03.122Z,5.90
